createdAt,value
2023-04-22T00:00:12.676Z,12.86
2023-04-22T00:01:17.563Z,12.85
2023-04-22T00:02:22.019Z,12.86
2023-04-22T00:03:25.822Z,12.86
2023-04-22T00:04:30.512Z,12.83
2023-04-22T00:05:34.689Z,12.80
2023-04-22T00:06:38.983Z,12.71
2023-04-22T00:07:39.136Z,12.69
2023-04-22T00:08:43.222Z,12.72
2023-04-22T00:09:47.826Z,12.73
2023-04-22T00:10:51.885Z,12.74
2023-04-22T00:11:56.495Z,12.74
2023-04-22T00:13:00.814Z,12.74
2023-04-22T00:14:04.910Z,12.72
2023-04-22T00:15:09.280Z,12.69
2023-04-22T00:16:13.911Z,12.70
2023-04-22T00:17:18.096Z,12.63
2023-04-22T00:18:22.295Z,12.62
2023-04-22T00:19:26.618Z,12.45
2023-04-22T00:20:31.224Z,12.41
2023-04-22T00:21:35.587Z,12.38
2023-04-22T00:22:40.163Z,12.35
2023-04-22T00:23:43.984Z,12.33
2023-04-22T00:24:48.330Z,12.34
2023-04-22T00:25:52.898Z,12.22
2023-04-22T00:26:56.990Z,12.21
2023-04-22T00:28:01.355Z,12.17
2023-04-22T00:29:05.711Z,12.00
2023-04-22T00:30:10.056Z,12.00
2023-04-22T00:31:15.011Z,11.96
2023-04-22T00:32:19.001Z,11.99
2023-04-22T00:33:23.067Z,11.96
2023-04-22T00:34:27.384Z,11.87
2023-04-22T00:35:31.717Z,11.87
2023-04-22T00:36:36.316Z,11.85
2023-04-22T00:37:41.663Z,11.78
2023-04-22T00:38:46.033Z,11.78
2023-04-22T00:39:50.659Z,11.78
2023-04-22T00:40:54.499Z,11.73
2023-04-22T00:41:58.866Z,11.72
2023-04-22T00:43:03.212Z,11.74
2023-04-22T00:44:07.844Z,11.69
2023-04-22T00:45:11.951Z,11.63
2023-04-22T00:46:16.328Z,11.63
2023-04-22T00:47:20.910Z,11.52
2023-04-22T00:48:27.533Z,11.58
2023-04-22T00:49:29.657Z,11.59
2023-04-22T00:50:34.027Z,11.64
2023-04-22T00:51:38.103Z,11.62
2023-04-22T00:52:42.747Z,11.61
2023-04-22T00:53:47.067Z,11.65
2023-04-22T00:54:51.416Z,11.56
2023-04-22T00:55:55.537Z,11.45
2023-04-22T00:57:00.410Z,11.46
2023-04-22T00:58:04.507Z,11.38
2023-04-22T00:59:08.877Z,11.33
2023-04-22T01:00:12.974Z,11.35
2023-04-22T01:01:17.454Z,11.26
2023-04-22T01:02:21.808Z,11.25
2023-04-22T01:03:26.439Z,11.28
2023-04-22T01:04:30.793Z,11.27
2023-04-22T01:05:35.007Z,11.22
2023-04-22T01:06:39.585Z,11.23
2023-04-22T01:07:44.677Z,11.23
2023-04-22T01:08:49.047Z,11.19
2023-04-22T01:09:53.115Z,11.15
2023-04-22T01:10:57.723Z,11.10
2023-04-22T01:12:02.090Z,11.09
2023-04-22T01:13:06.181Z,11.08
2023-04-22T01:14:10.504Z,11.08
2023-04-22T01:15:15.356Z,10.92
2023-04-22T01:16:19.220Z,10.95
2023-04-22T01:17:23.806Z,10.64
2023-04-22T01:18:28.122Z,10.65
2023-04-22T01:19:32.473Z,10.57
2023-04-22T01:20:36.577Z,10.57
2023-04-22T01:21:41.167Z,10.62
2023-04-22T01:22:45.513Z,10.63
2023-04-22T01:23:50.106Z,10.68
2023-04-22T01:24:54.487Z,10.60
2023-04-22T01:25:58.301Z,10.63
2023-04-22T01:27:02.899Z,10.68
2023-04-22T01:28:06.997Z,10.61
2023-04-22T01:29:11.589Z,10.58
2023-04-22T01:30:15.676Z,10.33
2023-04-22T01:31:20.032Z,10.33
2023-04-22T01:32:24.761Z,10.39
2023-04-22T01:33:29.226Z,10.41
2023-04-22T01:34:33.083Z,10.41
2023-04-22T01:35:37.699Z,10.39
2023-04-22T01:36:42.018Z,10.38
2023-04-22T01:37:47.613Z,10.32
2023-04-22T01:38:51.711Z,10.30
2023-04-22T01:39:55.798Z,10.19
2023-04-22T01:41:00.405Z,10.16
2023-04-22T01:42:04.732Z,10.13
2023-04-22T01:43:09.092Z,10.12
2023-04-22T01:44:13.423Z,10.06
2023-04-22T01:45:17.543Z,10.12
2023-04-22T01:46:21.898Z,10.08
2023-04-22T01:47:26.206Z,10.09
2023-04-22T01:48:30.561Z,10.10
2023-04-22T01:49:35.187Z,10.13
2023-04-22T01:50:39.782Z,10.12
2023-04-22T01:51:43.847Z,10.04
2023-04-22T01:52:48.200Z,10.08
2023-04-22T01:53:52.530Z,10.17
2023-04-22T01:54:56.603Z,10.20
2023-04-22T01:56:01.205Z,10.22
2023-04-22T01:57:05.559Z,10.26
2023-04-22T01:58:09.617Z,10.30
2023-04-22T01:59:14.455Z,10.26
2023-04-22T02:00:18.550Z,10.18
2023-04-22T02:01:22.974Z,10.22
2023-04-22T02:02:27.036Z,10.17
2023-04-22T02:03:31.477Z,10.17
2023-04-22T02:04:35.692Z,10.17
2023-04-22T02:05:40.275Z,10.14
2023-04-22T02:06:44.608Z,10.12
2023-04-22T02:07:50.201Z,10.03
2023-04-22T02:08:54.522Z,9.91
2023-04-22T02:09:58.365Z,10.01
2023-04-22T02:11:02.721Z,9.95
2023-04-22T02:12:07.379Z,9.93
2023-04-22T02:13:11.359Z,10.02
2023-04-22T02:14:15.693Z,9.98
2023-04-22T02:15:20.287Z,9.95
2023-04-22T02:16:24.742Z,9.91
2023-04-22T02:17:29.224Z,9.96
2023-04-22T02:18:33.543Z,10.03
2023-04-22T02:19:38.193Z,10.08
2023-04-22T02:20:41.984Z,10.14
2023-04-22T02:21:46.078Z,10.21
2023-04-22T02:22:50.426Z,10.28
2023-04-22T02:23:54.774Z,10.30
2023-04-22T02:24:59.125Z,10.35
2023-04-22T02:26:03.971Z,10.41
2023-04-22T02:27:08.066Z,10.39
2023-04-22T02:28:12.516Z,10.42
2023-04-22T02:29:16.502Z,10.32
2023-04-22T02:30:20.835Z,10.37
2023-04-22T02:31:25.475Z,10.39
2023-04-22T02:32:29.623Z,10.39
2023-04-22T02:33:34.134Z,10.40
2023-04-22T02:34:38.231Z,10.40
2023-04-22T02:35:43.072Z,10.38
2023-04-22T02:36:47.164Z,10.39
2023-04-22T02:37:52.792Z,10.41
2023-04-22T02:38:56.870Z,10.42
2023-04-22T02:40:01.202Z,10.37
2023-04-22T02:41:05.550Z,10.27
2023-04-22T02:42:09.903Z,10.26
2023-04-22T02:43:14.249Z,10.29
2023-04-22T02:44:18.921Z,10.28
2023-04-22T02:45:22.656Z,10.27
2023-04-22T02:46:27.296Z,10.23
2023-04-22T02:47:31.388Z,10.25
2023-04-22T02:48:35.957Z,10.27
2023-04-22T02:49:40.469Z,10.14
2023-04-22T02:50:44.363Z,10.10
2023-04-22T02:51:48.982Z,10.12
2023-04-22T02:52:53.598Z,9.98
2023-04-22T02:53:57.643Z,9.96
2023-04-22T02:55:01.712Z,9.94
2023-04-22T02:56:06.312Z,9.99
2023-04-22T02:57:10.642Z,10.01
2023-04-22T02:58:14.719Z,9.91
2023-04-22T02:59:19.304Z,9.92
2023-04-22T03:00:23.681Z,9.96
2023-04-22T03:01:28.107Z,9.97
2023-04-22T03:02:32.699Z,9.99
2023-04-22T03:03:36.725Z,10.07
2023-04-22T03:04:40.719Z,10.12
2023-04-22T03:05:45.326Z,10.17
2023-04-22T03:06:49.394Z,10.19
2023-04-22T03:07:55.243Z,10.21
2023-04-22T03:08:59.090Z,10.22
2023-04-22T03:10:03.686Z,10.23
2023-04-22T03:11:08.271Z,10.24
2023-04-22T03:12:12.091Z,10.19
2023-04-22T03:13:16.684Z,10.19
2023-04-22T03:14:20.999Z,10.20
2023-04-22T03:15:25.091Z,10.23
2023-04-22T03:16:29.773Z,10.19
2023-04-22T03:17:34.040Z,10.21
2023-04-22T03:18:38.098Z,10.22
2023-04-22T03:19:43.171Z,10.15
2023-04-22T03:20:47.029Z,10.18
2023-04-22T03:21:51.381Z,10.02
2023-04-22T03:22:55.452Z,10.02
2023-04-22T03:23:59.787Z,9.92
2023-04-22T03:25:04.371Z,9.94
2023-04-22T03:26:08.476Z,9.96
2023-04-22T03:27:12.805Z,10.02
2023-04-22T03:28:17.412Z,9.98
2023-04-22T03:29:21.741Z,9.95
2023-04-22T03:30:26.053Z,9.98
2023-04-22T03:31:30.441Z,9.92
2023-04-22T03:32:34.548Z,9.95
2023-04-22T03:33:39.110Z,9.92
2023-04-22T03:34:43.178Z,10.00
2023-04-22T03:35:47.766Z,9.90
2023-04-22T03:36:52.112Z,9.88
2023-04-22T03:37:57.733Z,9.93
2023-04-22T03:39:01.833Z,9.98
2023-04-22T03:40:06.125Z,10.01
2023-04-22T03:41:10.562Z,10.02
2023-04-22T03:42:14.546Z,10.04
2023-04-22T03:43:19.142Z,10.09
2023-04-22T03:44:23.471Z,10.06
2023-04-22T03:45:27.535Z,10.01
2023-04-22T03:46:32.671Z,10.03
2023-04-22T03:47:36.474Z,10.03
2023-04-22T03:48:40.824Z,10.09
2023-04-22T03:49:44.868Z,10.08
2023-04-22T03:50:49.197Z,10.11
2023-04-22T03:51:53.790Z,10.09
2023-04-22T03:52:58.123Z,10.08
2023-04-22T03:54:02.185Z,10.05
2023-04-22T03:55:06.786Z,10.10
2023-04-22T03:56:11.112Z,10.00
2023-04-22T03:57:15.427Z,10.05
2023-04-22T03:58:19.505Z,10.05
2023-04-22T03:59:23.846Z,10.02
2023-04-22T04:00:28.169Z,10.03
2023-04-22T04:01:32.763Z,9.92
2023-04-22T04:02:37.237Z,9.86
2023-04-22T04:03:41.446Z,9.86
2023-04-22T04:04:46.011Z,9.86
2023-04-22T04:05:50.170Z,9.89
2023-04-22T04:06:54.473Z,9.90
2023-04-22T04:07:59.817Z,9.93
2023-04-22T04:09:03.923Z,9.96
2023-04-22T04:10:08.228Z,9.95
2023-04-22T04:11:12.815Z,9.93
2023-04-22T04:12:17.165Z,9.95
2023-04-22T04:13:21.727Z,10.01
2023-04-22T04:14:26.048Z,9.96
2023-04-22T04:15:29.874Z,9.97
2023-04-22T04:16:34.255Z,10.02
2023-04-22T04:17:38.849Z,9.98
2023-04-22T04:18:43.141Z,9.99
2023-04-22T04:19:47.456Z,10.00
2023-04-22T04:20:51.831Z,10.05
2023-04-22T04:21:56.128Z,10.02
2023-04-22T04:23:00.742Z,10.06
2023-04-22T04:24:04.799Z,10.01
2023-04-22T04:25:09.139Z,10.03
2023-04-22T04:26:13.466Z,10.08
2023-04-22T04:27:17.784Z,10.10
2023-04-22T04:28:22.110Z,10.06
2023-04-22T04:29:26.452Z,10.13
2023-04-22T04:30:32.354Z,10.12
2023-04-22T04:31:35.430Z,10.18
2023-04-22T04:32:39.484Z,10.05
2023-04-22T04:33:43.812Z,10.10
2023-04-22T04:34:48.134Z,10.16
2023-04-22T04:35:52.489Z,10.18
2023-04-22T04:36:56.597Z,10.21
2023-04-22T04:38:02.244Z,10.22
2023-04-22T04:39:06.525Z,10.32
2023-04-22T04:40:11.099Z,10.25
2023-04-22T04:41:15.189Z,10.27
2023-04-22T04:42:19.268Z,10.35
2023-04-22T04:43:23.861Z,10.40
2023-04-22T04:44:27.956Z,10.45
2023-04-22T04:45:32.294Z,10.48
2023-04-22T04:46:36.716Z,10.53
2023-04-22T04:47:41.075Z,10.55
2023-04-22T04:48:45.850Z,10.60
2023-04-22T04:49:49.938Z,10.64
2023-04-22T04:50:54.078Z,10.68
2023-04-22T04:51:58.661Z,10.70
2023-04-22T04:53:03.001Z,10.80
2023-04-22T04:54:07.077Z,10.69
2023-04-22T04:55:11.675Z,10.59
2023-04-22T04:56:16.046Z,10.65
2023-04-22T04:57:20.401Z,10.75
2023-04-22T04:58:24.749Z,10.87
2023-04-22T04:59:29.084Z,10.93
2023-04-22T05:00:33.192Z,11.05
2023-04-22T05:01:37.889Z,11.13
2023-04-22T05:02:41.995Z,11.19
2023-04-22T05:03:46.379Z,11.29
2023-04-22T05:04:50.906Z,11.34
2023-04-22T05:05:54.909Z,11.45
2023-04-22T05:06:59.493Z,11.61
2023-04-22T05:08:05.387Z,11.88
2023-04-22T05:09:08.974Z,12.24
2023-04-22T05:10:13.301Z,12.55
2023-04-22T05:11:17.907Z,12.88
2023-04-22T05:12:22.013Z,13.15
2023-04-22T05:13:26.399Z,13.36
2023-04-22T05:14:30.994Z,13.51
2023-04-22T05:15:35.603Z,13.78
2023-04-22T05:16:39.791Z,14.13
2023-04-22T05:17:43.847Z,14.63
2023-04-22T05:18:48.219Z,15.13
2023-04-22T05:19:52.807Z,15.75
2023-04-22T05:20:57.128Z,15.92
2023-04-22T05:22:01.478Z,16.15
2023-04-22T05:23:05.539Z,16.22
2023-04-22T05:24:10.443Z,16.22
2023-04-22T05:25:14.499Z,16.08
2023-04-22T05:26:18.564Z,15.87
2023-04-22T05:27:23.159Z,15.96
2023-04-22T05:28:27.515Z,16.33
2023-04-22T05:29:31.579Z,16.88
2023-04-22T05:30:36.180Z,17.42
2023-04-22T05:31:40.522Z,17.68
2023-04-22T05:32:44.628Z,17.85
2023-04-22T05:33:49.415Z,18.18
2023-04-22T05:34:53.514Z,18.77
2023-04-22T05:35:57.894Z,18.78
2023-04-22T05:37:01.959Z,18.96
2023-04-22T05:38:07.559Z,19.12
2023-04-22T05:39:11.628Z,19.39
2023-04-22T05:40:16.256Z,19.22
2023-04-22T05:41:20.573Z,19.01
2023-04-22T05:42:25.216Z,19.11
2023-04-22T05:43:29.541Z,19.26
2023-04-22T05:44:33.361Z,19.50
2023-04-22T05:45:37.728Z,19.80
2023-04-22T05:46:42.315Z,19.85
2023-04-22T05:47:46.429Z,19.80
2023-04-22T05:48:50.735Z,19.91
2023-04-22T05:49:55.060Z,20.29
2023-04-22T05:50:59.918Z,20.50
2023-04-22T05:52:03.988Z,20.32
2023-04-22T05:53:08.071Z,20.41
2023-04-22T05:54:12.655Z,20.39
2023-04-22T05:55:17.005Z,20.63
2023-04-22T05:56:21.117Z,20.81
2023-04-22T05:57:25.683Z,20.99
2023-04-22T05:58:29.761Z,21.15
2023-04-22T05:59:34.094Z,21.34
2023-04-22T06:00:38.935Z,21.47
2023-04-22T06:01:43.009Z,21.38
2023-04-22T06:02:47.265Z,21.31
2023-04-22T06:03:51.919Z,21.20
2023-04-22T06:04:56.431Z,21.11
2023-04-22T06:06:00.349Z,21.03
2023-04-22T06:07:04.722Z,21.04
2023-04-22T06:09:07.130Z,21.23
2023-04-22T06:10:11.487Z,21.32
2023-04-22T06:11:15.554Z,21.33
2023-04-22T06:12:21.632Z,21.40
2023-04-22T06:13:24.465Z,21.58
2023-04-22T06:14:28.537Z,21.31
2023-04-22T06:15:33.194Z,21.18
2023-04-22T06:16:37.459Z,20.97
2023-04-22T06:17:41.551Z,21.16
2023-04-22T06:18:45.858Z,21.24
2023-04-22T06:19:50.186Z,21.43
2023-04-22T06:20:54.797Z,21.51
2023-04-22T06:21:59.141Z,21.52
2023-04-22T06:23:03.466Z,21.69
2023-04-22T06:24:07.536Z,21.53
2023-04-22T06:25:12.138Z,21.61
2023-04-22T06:26:16.193Z,21.77
2023-04-22T06:27:20.781Z,21.88
2023-04-22T06:28:24.875Z,22.00
2023-04-22T06:29:29.182Z,22.02
2023-04-22T06:33:27.293Z,21.46
2023-04-22T06:34:26.415Z,21.39
2023-04-22T06:35:30.501Z,21.72
2023-04-22T06:36:34.829Z,21.59
2023-04-22T06:37:39.217Z,21.45
2023-04-22T06:38:43.806Z,21.42
2023-04-22T06:39:48.495Z,21.65
2023-04-22T06:40:52.210Z,21.72
2023-04-22T06:41:56.797Z,22.22
2023-04-22T06:43:01.139Z,22.62
2023-04-22T06:44:05.493Z,22.74
2023-04-22T06:45:09.563Z,22.93
2023-04-22T06:46:14.207Z,23.11
2023-04-22T06:47:18.378Z,23.20
2023-04-22T06:48:23.103Z,23.14
2023-04-22T06:49:27.198Z,23.22
2023-04-22T06:50:31.540Z,23.45
2023-04-22T06:51:35.610Z,23.49
2023-04-22T06:52:40.213Z,23.38
2023-04-22T06:53:44.556Z,23.62
2023-04-22T06:54:48.637Z,23.77
2023-04-22T06:55:52.957Z,23.79
2023-04-22T06:57:07.297Z,23.93
2023-04-22T06:58:01.471Z,24.06
2023-04-22T06:59:05.545Z,24.16
2023-04-22T07:00:09.918Z,24.22
2023-04-22T07:01:14.269Z,24.39
2023-04-22T07:02:18.616Z,24.50
2023-04-22T07:03:19.130Z,24.05
2023-04-22T07:04:23.351Z,23.94
2023-04-22T07:05:27.633Z,24.25
2023-04-22T07:06:31.972Z,24.27
2023-04-22T07:07:36.059Z,23.60
2023-04-22T07:08:40.896Z,23.54
2023-04-22T07:09:44.967Z,22.87
2023-04-22T07:10:49.053Z,22.23
2023-04-22T07:11:53.634Z,22.70
2023-04-22T07:12:57.977Z,22.71
2023-04-22T07:14:02.303Z,22.75
2023-04-22T07:15:06.664Z,22.53
2023-04-22T07:16:11.062Z,22.51
2023-04-22T07:17:15.572Z,22.69
2023-04-22T07:18:19.891Z,22.87
2023-04-22T07:19:23.740Z,23.06
2023-04-22T07:20:28.307Z,23.27
2023-04-22T07:21:32.655Z,23.02
2023-04-22T07:22:37.014Z,22.91
2023-04-22T07:23:41.064Z,22.60
2023-04-22T07:24:45.395Z,22.31
2023-04-22T07:25:49.729Z,22.08
2023-04-22T07:26:54.315Z,22.37
2023-04-22T07:27:58.662Z,23.06
2023-04-22T07:29:02.985Z,22.84
2023-04-22T07:30:07.071Z,23.08
2023-04-22T07:31:11.683Z,23.46
2023-04-22T07:32:16.026Z,23.75
2023-04-22T07:33:16.124Z,23.82
2023-04-22T07:34:20.448Z,23.84
2023-04-22T07:35:24.535Z,23.66
2023-04-22T07:36:29.137Z,24.20
2023-04-22T07:37:33.485Z,23.53
2023-04-22T07:38:38.061Z,24.16
2023-04-22T07:39:42.381Z,23.77
2023-04-22T07:40:46.247Z,23.50
2023-04-22T07:41:50.850Z,24.07
2023-04-22T07:42:55.169Z,24.00
2023-04-22T07:43:59.517Z,24.61
2023-04-22T07:45:03.602Z,24.84
2023-04-22T07:46:08.212Z,24.69
2023-04-22T07:47:12.802Z,25.09
2023-04-22T07:48:17.169Z,25.09
2023-04-22T07:49:21.178Z,25.43
2023-04-22T07:50:25.601Z,25.67
2023-04-22T07:51:29.600Z,26.04
2023-04-22T07:52:34.196Z,25.87
2023-04-22T07:53:38.538Z,26.21
2023-04-22T07:54:42.866Z,26.76
2023-04-22T07:55:47.183Z,26.86
2023-04-22T07:56:51.785Z,25.99
2023-04-22T07:57:56.109Z,26.61
2023-04-22T07:58:59.930Z,27.04
2023-04-22T08:00:04.252Z,27.06
2023-04-22T08:01:08.892Z,27.06
2023-04-22T08:02:13.220Z,27.02
2023-04-22T08:03:13.441Z,27.31
2023-04-22T08:04:17.985Z,26.47
2023-04-22T08:05:22.088Z,26.46
2023-04-22T08:06:26.310Z,26.52
2023-04-22T08:07:32.902Z,26.72
2023-04-22T08:08:35.005Z,25.58
2023-04-22T08:09:39.713Z,25.56
2023-04-22T08:10:43.672Z,25.86
2023-04-22T08:11:48.020Z,26.14
2023-04-22T08:12:52.117Z,26.46
2023-04-22T08:13:56.449Z,26.57
2023-04-22T08:17:10.401Z,25.48
2023-04-22T08:18:10.084Z,25.73
2023-04-22T08:19:14.032Z,25.74
2023-04-22T08:20:18.518Z,26.28
2023-04-22T08:21:22.700Z,25.73
2023-04-22T08:22:27.296Z,26.12
2023-04-22T08:23:31.604Z,25.79
2023-04-22T08:24:36.216Z,26.16
2023-04-22T08:25:40.591Z,26.32
2023-04-22T08:26:44.679Z,26.56
2023-04-22T08:27:49.046Z,26.02
2023-04-22T08:28:53.144Z,26.40
2023-04-22T08:29:57.763Z,26.60
2023-04-22T08:31:01.896Z,26.37
2023-04-22T08:32:06.213Z,26.43
2023-04-22T08:33:10.829Z,26.35
2023-04-22T08:34:15.177Z,25.78
2023-04-22T08:35:19.523Z,26.05
2023-04-22T08:36:23.647Z,26.40
2023-04-22T08:37:28.244Z,26.49
2023-04-22T08:38:32.601Z,26.91
2023-04-22T08:39:37.189Z,27.22
2023-04-22T08:40:41.050Z,26.76
2023-04-22T08:41:45.653Z,26.76
2023-04-22T08:42:50.282Z,27.14
2023-04-22T08:43:54.638Z,27.30
2023-04-22T08:44:58.724Z,26.71
2023-04-22T08:46:03.092Z,26.95
2023-04-22T08:47:03.204Z,26.86
2023-04-22T08:48:07.260Z,26.56
2023-04-22T08:49:11.858Z,26.60
2023-04-22T08:50:16.179Z,26.56
2023-04-22T08:51:20.543Z,26.22
2023-04-22T08:52:24.879Z,25.61
2023-04-22T08:53:29.204Z,25.73
2023-04-22T08:54:33.795Z,25.96
2023-04-22T08:55:37.916Z,25.47
2023-04-22T08:56:42.243Z,25.82
2023-04-22T08:57:46.592Z,25.63
2023-04-22T08:58:50.907Z,26.37
2023-04-22T08:59:55.018Z,26.27
2023-04-22T09:00:59.327Z,26.42
2023-04-22T09:02:04.056Z,26.39
2023-04-22T09:03:08.593Z,26.43
2023-04-22T09:04:12.753Z,26.28
2023-04-22T09:05:16.917Z,26.71
2023-04-22T09:06:21.024Z,26.66
2023-04-22T09:07:25.395Z,27.01
2023-04-22T09:08:29.763Z,27.15
2023-04-22T09:09:34.328Z,27.29
2023-04-22T09:10:38.419Z,27.21
2023-04-22T09:11:43.002Z,27.34
2023-04-22T09:12:47.593Z,27.06
2023-04-22T09:13:51.440Z,27.29
2023-04-22T09:14:55.757Z,27.50
2023-04-22T09:16:00.266Z,27.32
2023-04-22T09:17:00.481Z,27.31
2023-04-22T09:18:04.592Z,27.30
2023-04-22T09:19:29.756Z,26.67
2023-04-22T09:20:13.522Z,26.66
2023-04-22T09:21:17.573Z,27.07
2023-04-22T09:22:22.079Z,26.94
2023-04-22T09:23:27.335Z,27.18
2023-04-22T09:24:31.535Z,26.64
2023-04-22T09:25:35.657Z,26.27
2023-04-22T09:26:40.034Z,26.52
2023-04-22T09:27:44.087Z,26.77
2023-04-22T09:28:48.439Z,26.79
2023-04-22T09:29:52.765Z,26.32
2023-04-22T09:30:57.105Z,26.27
2023-04-22T09:32:01.495Z,26.24
2023-04-22T09:33:06.184Z,26.66
2023-04-22T09:34:10.431Z,27.05
2023-04-22T09:35:14.556Z,27.14
2023-04-22T09:36:19.176Z,27.70
2023-04-22T09:37:23.501Z,27.61
2023-04-22T09:38:27.578Z,27.68
2023-04-22T09:39:32.173Z,27.78
2023-04-22T09:40:36.284Z,27.26
2023-04-22T09:41:40.850Z,27.63
2023-04-22T09:42:45.182Z,27.38
2023-04-22T09:43:49.532Z,27.47
2023-04-22T09:44:53.597Z,27.05
2023-04-22T09:45:58.212Z,27.34
2023-04-22T09:46:58.322Z,27.74
2023-04-22T09:48:02.756Z,27.82
2023-04-22T09:49:06.989Z,28.19
2023-04-22T09:50:08.927Z,28.38
2023-04-22T09:51:16.025Z,27.73
2023-04-22T09:52:20.885Z,27.83
2023-04-22T09:53:24.982Z,27.54
2023-04-22T09:54:29.051Z,27.13
2023-04-22T09:55:33.418Z,27.37
2023-04-22T09:56:37.732Z,27.57
2023-04-22T09:57:42.057Z,27.97
2023-04-22T09:58:46.395Z,27.60
2023-04-22T09:59:50.721Z,27.46
2023-04-22T10:00:55.121Z,27.34
2023-04-22T10:01:59.920Z,27.55
2023-04-22T10:03:04.089Z,27.56
2023-04-22T10:04:08.332Z,26.89
2023-04-22T10:05:12.401Z,27.32
2023-04-22T10:06:16.727Z,27.71
2023-04-22T10:07:21.091Z,27.50
2023-04-22T10:08:25.675Z,27.16
2023-04-22T10:09:29.756Z,27.50
2023-04-22T10:10:34.582Z,27.56
2023-04-22T10:11:38.908Z,27.46
2023-04-22T10:12:43.024Z,27.56
2023-04-22T10:13:47.081Z,27.01
2023-04-22T10:14:51.670Z,26.63
2023-04-22T10:15:55.021Z,27.29
2023-04-22T10:16:56.167Z,27.31
2023-04-22T10:18:00.285Z,26.60
2023-04-22T10:19:04.840Z,26.54
2023-04-22T10:20:08.937Z,26.65
2023-04-22T10:21:13.302Z,26.84
2023-04-22T10:22:17.923Z,27.00
2023-04-22T10:23:22.285Z,27.35
2023-04-22T10:24:26.384Z,27.97
2023-04-22T10:25:30.710Z,28.11
2023-04-22T10:26:35.313Z,28.14
2023-04-22T10:27:39.679Z,28.45
2023-04-22T10:28:44.013Z,28.59
2023-04-22T10:29:48.327Z,28.87
2023-04-22T10:30:52.779Z,27.51
2023-04-22T10:31:57.330Z,27.58
2023-04-22T10:33:01.638Z,27.06
2023-04-22T10:34:05.444Z,27.00
2023-04-22T10:35:09.926Z,27.41
2023-04-22T10:36:14.368Z,27.61
2023-04-22T10:37:18.682Z,27.78
2023-04-22T10:38:23.037Z,26.52
2023-04-22T10:39:27.125Z,26.90
2023-04-22T10:40:31.733Z,27.06
2023-04-22T10:41:36.295Z,27.63
2023-04-22T10:42:40.395Z,27.63
2023-04-22T10:43:44.469Z,27.21
2023-04-22T10:44:48.843Z,27.31
2023-04-22T10:45:53.340Z,26.75
2023-04-22T10:46:53.375Z,27.11
2023-04-22T10:47:57.955Z,27.23
2023-04-22T10:49:02.298Z,27.82
2023-04-22T10:50:06.651Z,28.27
2023-04-22T10:51:10.707Z,28.84
2023-04-22T10:52:15.321Z,29.19
2023-04-22T10:53:19.666Z,29.05
2023-04-22T10:54:23.736Z,29.07
2023-04-22T10:55:28.333Z,28.07
2023-04-22T10:56:32.408Z,27.77
2023-04-22T10:57:36.741Z,27.83
2023-04-22T10:58:41.380Z,27.86
2023-04-22T10:59:45.706Z,27.55
2023-04-22T11:00:53.928Z,27.84
2023-04-22T11:01:54.456Z,27.29
2023-04-22T11:02:58.784Z,27.19
2023-04-22T11:04:03.122Z,27.23
2023-04-22T11:05:07.122Z,26.98
2023-04-22T11:06:11.459Z,27.34
2023-04-22T11:07:15.815Z,26.76
2023-04-22T11:08:20.154Z,26.90
2023-04-22T11:09:24.506Z,27.02
2023-04-22T11:10:29.343Z,26.36
2023-04-22T11:11:33.441Z,25.88
2023-04-22T11:12:37.515Z,25.70
2023-04-22T11:13:41.889Z,25.38
2023-04-22T11:14:46.225Z,25.80
2023-04-22T11:15:51.067Z,25.60
2023-04-22T11:16:51.102Z,25.63
2023-04-22T11:17:55.438Z,25.80
2023-04-22T11:18:59.449Z,26.26
2023-04-22T11:20:03.791Z,26.45
2023-04-22T11:21:08.670Z,26.60
2023-04-22T11:22:12.987Z,26.68
2023-04-22T11:23:17.084Z,27.12
2023-04-22T11:24:21.438Z,27.53
2023-04-22T11:25:25.502Z,27.96
2023-04-22T11:26:30.128Z,28.50
2023-04-22T11:27:34.483Z,28.49
2023-04-22T11:28:38.569Z,28.39
2023-04-22T11:29:42.887Z,28.36
2023-04-22T11:30:47.502Z,28.59
2023-04-22T11:31:52.132Z,28.36
2023-04-22T11:32:56.174Z,28.63
2023-04-22T11:34:00.566Z,27.62
2023-04-22T11:35:04.570Z,27.78
2023-04-22T11:37:56.632Z,26.79
2023-04-22T11:39:00.983Z,26.97
2023-04-22T11:40:17.297Z,26.72
2023-04-22T11:41:09.913Z,26.34
2023-04-22T11:42:13.985Z,26.51
2023-04-22T11:43:18.329Z,26.68
2023-04-22T11:44:22.692Z,26.55
2023-04-22T11:45:26.988Z,27.03
2023-04-22T11:46:31.719Z,26.51
2023-04-22T11:47:35.989Z,26.60
2023-04-22T11:48:40.041Z,26.48
2023-04-22T11:49:44.660Z,26.80
2023-04-22T11:50:49.037Z,27.09
2023-04-22T11:51:53.122Z,27.01
2023-04-22T11:52:57.754Z,26.82
2023-04-22T11:54:02.098Z,26.77
2023-04-22T11:55:06.466Z,26.48
2023-04-22T11:56:10.813Z,26.31
2023-04-22T11:57:14.927Z,26.77
2023-04-22T11:58:19.286Z,26.71
2023-04-22T11:59:23.661Z,26.30
2023-04-22T12:00:28.003Z,26.82
2023-04-22T12:01:32.363Z,27.11
2023-04-22T12:02:36.838Z,27.33
2023-04-22T12:03:42.335Z,27.44
2023-04-22T12:04:45.940Z,27.52
2023-04-22T12:05:49.798Z,27.73
2023-04-22T12:06:54.207Z,27.68
2023-04-22T12:07:54.509Z,27.44
2023-04-22T12:08:58.854Z,27.22
2023-04-22T12:10:02.945Z,27.06
2023-04-22T12:11:07.274Z,27.10
2023-04-22T12:12:11.609Z,27.30
2023-04-22T12:13:16.221Z,27.34
2023-04-22T12:14:20.282Z,27.53
2023-04-22T12:15:24.886Z,27.49
2023-04-22T12:16:29.325Z,27.19
2023-04-22T12:17:33.592Z,27.12
2023-04-22T12:18:37.931Z,27.16
2023-04-22T12:19:42.140Z,26.83
2023-04-22T12:20:46.569Z,26.64
2023-04-22T12:21:50.917Z,26.13
2023-04-22T12:22:55.013Z,25.94
2023-04-22T12:23:59.646Z,25.95
2023-04-22T12:25:04.249Z,26.01
2023-04-22T12:26:08.337Z,25.50
2023-04-22T12:27:12.415Z,25.22
2023-04-22T12:28:16.758Z,25.13
2023-04-22T12:29:46.190Z,25.27
2023-04-22T12:30:51.493Z,25.17
2023-04-22T12:31:55.027Z,25.12
2023-04-22T12:32:59.356Z,25.00
2023-04-22T12:34:03.727Z,24.99
2023-04-22T12:35:08.305Z,25.41
2023-04-22T12:36:12.658Z,25.50
2023-04-22T12:37:16.979Z,25.68
2023-04-22T12:38:21.556Z,25.35
2023-04-22T12:39:25.620Z,25.71
2023-04-22T12:40:29.983Z,26.03
2023-04-22T12:41:34.046Z,26.14
2023-04-22T12:42:38.637Z,26.21
2023-04-22T12:43:42.721Z,25.83
2023-04-22T12:44:47.327Z,25.91
2023-04-22T12:45:51.412Z,25.86
2023-04-22T12:46:55.999Z,26.14
2023-04-22T12:48:00.598Z,26.43
2023-04-22T12:49:04.943Z,26.75
2023-04-22T12:50:08.770Z,26.76
2023-04-22T12:51:13.382Z,27.11
2023-04-22T12:52:17.440Z,26.81
2023-04-22T12:53:21.788Z,26.97
2023-04-22T12:54:26.140Z,26.82
2023-04-22T12:55:30.462Z,26.89
2023-04-22T12:56:34.829Z,26.60
2023-04-22T12:57:39.422Z,26.93
2023-04-22T12:58:43.492Z,27.02
2023-04-22T12:59:44.117Z,26.47
2023-04-22T13:00:48.446Z,26.28
2023-04-22T13:01:52.423Z,26.53
2023-04-22T13:02:56.981Z,26.75
2023-04-22T13:04:01.233Z,26.74
2023-04-22T13:05:05.321Z,26.79
2023-04-22T13:06:09.641Z,26.50
2023-04-22T13:07:14.000Z,26.81
2023-04-22T13:08:18.842Z,26.72
2023-04-22T13:09:22.933Z,26.53
2023-04-22T13:10:27.013Z,26.11
2023-04-22T13:11:31.367Z,26.43
2023-04-22T13:12:38.373Z,26.39
2023-04-22T13:13:40.051Z,26.24
2023-04-22T13:14:44.403Z,26.39
2023-04-22T13:15:48.734Z,26.20
2023-04-22T13:16:53.065Z,26.25
2023-04-22T13:17:57.935Z,26.28
2023-04-22T13:19:01.990Z,26.31
2023-04-22T13:20:06.338Z,26.15
2023-04-22T13:21:10.647Z,26.22
2023-04-22T13:22:14.996Z,26.28
2023-04-22T13:23:19.101Z,26.29
2023-04-22T13:24:23.425Z,26.68
2023-04-22T13:25:27.754Z,26.33
2023-04-22T13:26:32.336Z,26.31
2023-04-22T13:27:36.681Z,26.07
2023-04-22T13:28:41.003Z,25.80
2023-04-22T13:29:41.688Z,25.99
2023-04-22T13:30:45.197Z,26.08
2023-04-22T13:31:49.826Z,26.02
2023-04-22T13:32:54.164Z,25.99
2023-04-22T13:33:58.464Z,25.84
2023-04-22T13:35:03.256Z,25.75
2023-04-22T13:36:07.136Z,25.42
2023-04-22T13:37:11.201Z,25.32
2023-04-22T13:38:15.802Z,25.36
2023-04-22T13:39:20.247Z,25.54
2023-04-22T13:40:24.344Z,25.54
2023-04-22T13:41:28.705Z,25.55
2023-04-22T13:42:33.364Z,25.58
2023-04-22T13:43:37.460Z,25.37
2023-04-22T13:44:41.799Z,25.24
2023-04-22T13:45:46.135Z,25.01
2023-04-22T13:46:50.712Z,25.15
2023-04-22T13:47:55.357Z,25.26
2023-04-22T13:48:59.137Z,25.37
2023-04-22T13:50:03.744Z,25.52
2023-04-22T13:51:08.102Z,25.53
2023-04-22T13:52:12.437Z,25.60
2023-04-22T13:53:16.500Z,25.48
2023-04-22T13:54:20.851Z,25.43
2023-04-22T13:55:25.452Z,25.28
2023-04-22T13:56:29.782Z,25.14
2023-04-22T13:57:34.124Z,25.15